Time;durP1;ratioP1;P1;durP2;ratioP2;P2;SDS_P1;SDS_P2;PMS_P1;PMS_P2;Temp;Humidity;BMP_temperature;BMP_pressure;BME280_temperature;BME280_humidity;BME280_pressure;Samples;Min_cycle;Max_cycle;Signal;HPM_P1;HPM_P2
2023/10/25 00:00:58;;;;;;;;;;;17.00;83.40;;;;;;5093240;28;20002;-68
2023/10/25 00:03:23;;;;;;;;;;;17.00;83.30;;;;;;5093898;28;19934;-69
2023/10/25 00:05:49;;;;;;;;;;;17.00;83.00;;;;;;5095005;28;19956;-68
2023/10/25 00:08:15;;;;;;;;;;;17.00;82.70;;;;;;5094727;28;19920;-68
2023/10/25 00:10:41;;;;;;;;;;;17.10;82.50;;;;;;5093254;28;19920;-68
2023/10/25 00:13:07;;;;;;;;;;;17.10;81.70;;;;;;5093409;28;19916;-68
2023/10/25 00:15:33;;;;;;;;;;;17.10;82.10;;;;;;5094808;28;20449;-68
2023/10/25 00:17:59;;;;;;;;;;;17.20;82.00;;;;;;5093432;28;20002;-69
2023/10/25 00:20:25;;;;;;;;;;;17.10;82.00;;;;;;5093082;28;19920;-69
2023/10/25 00:22:50;;;;;;;;;;;17.10;82.20;;;;;;5094734;28;19999;-68
2023/10/25 00:25:17;;;;;;;;;;;17.10;82.40;;;;;;5094550;28;20392;-69
2023/10/25 00:27:42;;;;;;;;;;;17.10;82.40;;;;;;5094601;28;20325;-68
2023/10/25 00:30:10;;;;;;;;;;;17.00;82.40;;;;;;5092788;28;19995;-68
2023/10/25 00:32:35;;;;;;;;;;;17.00;82.20;;;;;;5094918;28;19923;-68
2023/10/25 00:35:01;;;;;;;;;;;17.00;82.20;;;;;;5093098;28;19938;-68
2023/10/25 00:37:27;;;;;;;;;;;17.00;82.10;;;;;;5094635;28;20025;-68
2023/10/25 00:39:56;;;;;;;;;;;17.00;81.90;;;;;;5093085;28;20003;-68
2023/10/25 00:42:22;;;;;;;;;;;17.00;81.70;;;;;;5094015;28;19927;-68
2023/10/25 00:44:48;;;;;;;;;;;17.00;81.10;;;;;;5094304;28;19912;-68
2023/10/25 00:47:15;;;;;;;;;;;17.00;81.60;;;;;;5093183;28;20010;-68
2023/10/25 00:49:41;;;;;;;;;;;17.00;81.60;;;;;;5093770;28;19912;-69
2023/10/25 00:52:07;;;;;;;;;;;17.00;81.60;;;;;;5093013;28;20416;-69
2023/10/25 00:54:35;;;;;;;;;;;17.00;81.60;;;;;;5094138;28;20007;-69
2023/10/25 00:57:02;;;;;;;;;;;16.90;81.30;;;;;;5092941;28;19926;-68
2023/10/25 00:59:29;;;;;;;;;;;17.00;81.10;;;;;;5092822;28;19912;-68
2023/10/25 01:01:56;;;;;;;;;;;17.00;81.00;;;;;;5092165;28;19928;-68
2023/10/25 01:04:22;;;;;;;;;;;16.90;81.00;;;;;;5092763;28;19919;-69
2023/10/25 01:06:48;;;;;;;;;;;16.90;80.50;;;;;;5092477;28;19920;-68
2023/10/25 01:09:14;;;;;;;;;;;16.90;81.10;;;;;;5093855;28;19947;-68
2023/10/25 01:11:41;;;;;;;;;;;16.90;81.00;;;;;;5093632;28;19920;-68
2023/10/25 01:14:07;;;;;;;;;;;16.90;80.80;;;;;;5093720;28;19938;-68
2023/10/25 01:16:33;;;;;;;;;;;16.90;80.70;;;;;;5092581;28;19920;-69
2023/10/25 01:18:59;;;;;;;;;;;16.90;80.70;;;;;;5093523;28;19912;-69
2023/10/25 01:21:25;;;;;;;;;;;16.90;80.70;;;;;;5091552;28;19923;-69
2023/10/25 01:23:52;;;;;;;;;;;16.80;79.90;;;;;;5092329;28;19926;-68
2023/10/25 01:26:19;;;;;;;;;;;16.80;80.30;;;;;;5092479;28;19927;-68
2023/10/25 01:28:44;;;;;;;;;;;16.70;79.90;;;;;;5092383;28;19918;-69
2023/10/25 01:31:10;;;;;;;;;;;16.80;80.50;;;;;;5091666;28;20368;-68
2023/10/25 01:33:36;;;;;;;;;;;16.70;80.30;;;;;;5093372;28;19920;-69
2023/10/25 01:36:02;;;;;;;;;;;16.70;80.20;;;;;;5093254;28;19920;-68
2023/10/25 01:38:28;;;;;;;;;;;16.70;80.30;;;;;;5075182;28;19958;-68
2023/10/25 01:40:54;;;;;;;;;;;16.70;80.20;;;;;;5074585;28;19920;-68
2023/10/25 01:43:21;;;;;;;;;;;16.70;80.40;;;;;;5093425;28;20432;-69
2023/10/25 01:45:47;;;;;;;;;;;16.70;80.60;;;;;;5091872;28;20014;-68
2023/10/25 01:48:13;;;;;;;;;;;16.60;80.80;;;;;;5091954;28;20007;-69
2023/10/25 01:50:39;;;;;;;;;;;16.50;82.10;;;;;;5091498;28;19952;-68
2023/10/25 01:53:05;;;;;;;;;;;16.50;82.30;;;;;;5093026;28;20136;-68
2023/10/25 01:55:30;;;;;;;;;;;16.50;82.10;;;;;;5093178;28;19912;-68
2023/10/25 01:57:56;;;;;;;;;;;16.50;82.10;;;;;;5093019;28;20011;-68
2023/10/25 02:00:22;;;;;;;;;;;16.50;82.20;;;;;;5074442;28;20348;-68
2023/10/25 02:02:48;;;;;;;;;;;16.50;82.10;;;;;;5091290;28;20368;-68
2023/10/25 02:05:14;;;;;;;;;;;16.50;82.00;;;;;;5093171;28;19912;-68
2023/10/25 02:07:40;;;;;;;;;;;16.50;81.80;;;;;;5091884;28;19912;-69
2023/10/25 02:10:06;;;;;;;;;;;16.50;81.90;;;;;;5091539;28;20238;-68
2023/10/25 02:12:32;;;;;;;;;;;16.50;81.70;;;;;;5091554;28;19912;-68
2023/10/25 02:14:58;;;;;;;;;;;16.50;81.60;;;;;;5093041;28;19981;-68
2023/10/25 02:17:24;;;;;;;;;;;16.50;81.60;;;;;;5091799;28;20421;-68
2023/10/25 02:19:50;;;;;;;;;;;16.50;81.30;;;;;;5091696;28;20281;-69
2023/10/25 02:22:16;;;;;;;;;;;16.60;81.30;;;;;;5091251;28;20275;-68
2023/10/25 02:24:42;;;;;;;;;;;16.50;81.30;;;;;;5092916;28;20006;-68
2023/10/25 02:27:07;;;;;;;;;;;16.50;81.20;;;;;;5093139;28;19927;-68
2023/10/25 02:29:33;;;;;;;;;;;16.40;81.30;;;;;;5092990;28;19916;-68
2023/10/25 02:31:59;;;;;;;;;;;16.40;81.50;;;;;;5092541;28;20010;-68
2023/10/25 02:34:25;;;;;;;;;;;16.30;82.00;;;;;;5091388;28;19926;-68
2023/10/25 02:36:51;;;;;;;;;;;16.20;82.10;;;;;;5091294;28;19934;-68
2023/10/25 02:39:17;;;;;;;;;;;16.10;82.50;;;;;;5074789;28;20086;-68
2023/10/25 02:41:43;;;;;;;;;;;16.00;82.60;;;;;;5092207;28;20368;-68
2023/10/25 02:44:09;;;;;;;;;;;15.90;82.30;;;;;;5074660;28;20360;-68
2023/10/25 02:46:35;;;;;;;;;;;15.90;82.80;;;;;;5091533;28;20015;-68
2023/10/25 02:49:01;;;;;;;;;;;15.90;83.00;;;;;;5091267;28;19938;-68
2023/10/25 02:51:27;;;;;;;;;;;15.80;83.00;;;;;;5090794;28;20007;-69
2023/10/25 02:53:53;;;;;;;;;;;15.80;83.10;;;;;;5091449;28;20015;-69
2023/10/25 02:56:19;;;;;;;;;;;15.90;82.90;;;;;;5091433;28;19971;-68
2023/10/25 02:58:45;;;;;;;;;;;15.90;82.50;;;;;;5092571;28;20019;-69
2023/10/25 03:01:37;;;;;;;;;;;16.00;82.00;;;;;;5092103;28;19920;-68
2023/10/25 03:04:03;;;;;;;;;;;16.00;81.60;;;;;;5092596;28;20384;-68
2023/10/25 03:06:29;;;;;;;;;;;16.10;81.60;;;;;;5092675;28;19927;-68
2023/10/25 03:08:55;;;;;;;;;;;16.10;81.50;;;;;;5091127;28;19957;-68
2023/10/25 03:11:20;;;;;;;;;;;16.10;81.40;;;;;;5092059;28;19920;-69
2023/10/25 03:13:46;;;;;;;;;;;16.20;81.30;;;;;;5093134;28;19918;-68
2023/10/25 03:16:13;;;;;;;;;;;16.20;81.30;;;;;;5094845;28;20442;-68
2023/10/25 03:18:39;;;;;;;;;;;16.20;81.30;;;;;;5094707;28;19912;-68
2023/10/25 03:21:05;;;;;;;;;;;16.20;81.40;;;;;;5094114;28;20061;-68
2023/10/25 03:23:31;;;;;;;;;;;16.20;81.50;;;;;;5094688;28;19935;-68
2023/10/25 03:26:22;;;;;;;;;;;16.10;81.20;;;;;;5094485;28;20368;-68
2023/10/25 03:28:50;;;;;;;;;;;16.20;81.20;;;;;;5095790;28;19912;-69
2023/10/25 03:31:16;;;;;;;;;;;16.10;81.30;;;;;;5094073;28;20347;-69
2023/10/25 03:33:42;;;;;;;;;;;16.10;81.40;;;;;;5077540;28;20007;-68
2023/10/25 03:36:08;;;;;;;;;;;16.10;81.20;;;;;;5095431;28;20391;-69
2023/10/25 03:41:18;;;;;;;;;;;16.10;81.30;;;;;;5095297;28;20016;-68
2023/10/25 03:43:44;;;;;;;;;;;16.10;81.30;;;;;;5094321;28;19995;-68
2023/10/25 03:46:10;;;;;;;;;;;16.10;81.20;;;;;;5094016;28;19927;-68
2023/10/25 03:48:37;;;;;;;;;;;16.10;81.10;;;;;;5094090;28;19960;-68
2023/10/25 03:51:22;;;;;;;;;;;16.00;80.90;;;;;;5076705;28;20407;-68
2023/10/25 03:53:48;;;;;;;;;;;16.00;81.00;;;;;;5095304;28;19967;-68
2023/10/25 03:56:14;;;;;;;;;;;16.00;81.20;;;;;;5093999;28;19923;-68
2023/10/25 03:58:40;;;;;;;;;;;15.90;81.20;;;;;;5093856;28;19922;-68
2023/10/25 04:01:07;;;;;;;;;;;15.90;81.20;;;;;;5094776;28;19934;-68
2023/10/25 04:03:33;;;;;;;;;;;15.80;80.40;;;;;;5094169;28;19916;-69
2023/10/25 04:05:59;;;;;;;;;;;15.80;80.80;;;;;;5093978;28;19916;-68
2023/10/25 04:08:25;;;;;;;;;;;15.80;80.90;;;;;;5093791;28;20419;-68
2023/10/25 04:11:09;;;;;;;;;;;15.80;80.80;;;;;;5093019;28;20051;-68
2023/10/25 04:13:35;;;;;;;;;;;15.80;80.60;;;;;;5077017;28;20369;-68
2023/10/25 04:16:19;;;;;;;;;;;15.80;80.60;;;;;;5094993;28;20002;-68
2023/10/25 04:18:45;;;;;;;;;;;15.80;80.40;;;;;;5093546;28;19920;-69
2023/10/25 04:21:12;;;;;;;;;;;15.80;80.50;;;;;;5092999;28;20408;-68
2023/10/25 04:23:38;;;;;;;;;;;15.80;80.20;;;;;;5093670;28;19962;-69
2023/10/25 04:26:23;;;;;;;;;;;15.80;80.30;;;;;;5093018;28;19927;-68
2023/10/25 04:28:49;;;;;;;;;;;15.80;79.90;;;;;;5093357;28;20003;-68
2023/10/25 04:31:17;;;;;;;;;;;15.80;79.80;;;;;;5075728;28;19986;-68
2023/10/25 04:33:42;;;;;;;;;;;15.80;79.80;;;;;;5094436;28;19923;-68
2023/10/25 04:36:08;;;;;;;;;;;15.80;80.00;;;;;;5093020;28;20420;-69
2023/10/25 04:38:35;;;;;;;;;;;15.70;80.30;;;;;;5092738;28;20396;-68
2023/10/25 04:41:01;;;;;;;;;;;15.70;80.20;;;;;;5093893;28;19947;-68
2023/10/25 04:43:27;;;;;;;;;;;15.60;79.60;;;;;;5093326;28;20361;-68
2023/10/25 04:45:52;;;;;;;;;;;15.60;80.20;;;;;;5092484;28;20014;-68
2023/10/25 04:48:19;;;;;;;;;;;15.60;80.10;;;;;;5092714;28;19916;-68
2023/10/25 04:50:45;;;;;;;;;;;15.50;79.80;;;;;;5092344;28;19920;-68
2023/10/25 04:53:10;;;;;;;;;;;15.50;80.50;;;;;;5094262;28;20368;-68
2023/10/25 04:55:37;;;;;;;;;;;15.40;80.10;;;;;;5094080;28;19928;-68
2023/10/25 04:58:04;;;;;;;;;;;15.40;80.00;;;;;;5093999;28;20383;-69
2023/10/25 05:00:31;;;;;;;;;;;15.40;80.00;;;;;;5075190;28;19916;-68
2023/10/25 05:02:58;;;;;;;;;;;15.30;79.80;;;;;;5092627;28;20403;-69
2023/10/25 05:05:23;;;;;;;;;;;15.30;79.80;;;;;;5075858;28;19916;-68
2023/10/25 05:07:50;;;;;;;;;;;15.30;79.80;;;;;;5092322;28;19916;-68
2023/10/25 05:10:16;;;;;;;;;;;15.30;79.80;;;;;;5092364;28;20259;-68
2023/10/25 05:12:44;;;;;;;;;;;15.30;79.90;;;;;;5092420;28;19920;-68
2023/10/25 05:15:13;;;;;;;;;;;15.20;79.80;;;;;;5092580;28;19916;-68
2023/10/25 05:17:41;;;;;;;;;;;15.20;79.80;;;;;;5092670;28;19916;-69
2023/10/25 05:20:08;;;;;;;;;;;15.20;79.80;;;;;;5092003;28;19993;-69
2023/10/25 05:22:36;;;;;;;;;;;15.20;79.60;;;;;;5094216;28;19916;-68
2023/10/25 05:25:03;;;;;;;;;;;15.30;79.60;;;;;;5093619;28;19920;-68
2023/10/25 05:27:29;;;;;;;;;;;15.20;79.30;;;;;;5092387;28;20444;-69
2023/10/25 05:29:59;;;;;;;;;;;15.30;79.50;;;;;;5092399;28;20555;-69
2023/10/25 05:32:26;;;;;;;;;;;15.30;78.80;;;;;;5093487;28;19916;-68
2023/10/25 05:34:52;;;;;;;;;;;15.40;79.10;;;;;;5093328;28;19916;-67
2023/10/25 05:37:18;;;;;;;;;;;15.40;78.50;;;;;;5091159;28;19916;-68
2023/10/25 05:39:44;;;;;;;;;;;15.40;78.40;;;;;;5093531;28;19916;-68
2023/10/25 05:42:16;;;;;;;;;;;15.40;78.30;;;;;;5093328;28;20300;-68
2023/10/25 05:44:43;;;;;;;;;;;15.40;78.60;;;;;;5092342;28;19916;-68
2023/10/25 05:47:08;;;;;;;;;;;15.40;78.10;;;;;;5091984;28;19958;-68
2023/10/25 05:49:35;;;;;;;;;;;15.40;78.70;;;;;;5093263;28;20384;-68
2023/10/25 05:52:01;;;;;;;;;;;15.40;78.10;;;;;;5092403;28;19920;-68
2023/10/25 05:54:27;;;;;;;;;;;15.40;78.30;;;;;;5093247;28;19912;-68
2023/10/25 05:56:54;;;;;;;;;;;15.30;78.60;;;;;;5091891;28;19981;-68
2023/10/25 05:59:20;;;;;;;;;;;15.30;79.10;;;;;;5092016;28;20365;-68
2023/10/25 06:02:04;;;;;;;;;;;15.20;78.70;;;;;;5092790;28;19931;-68
2023/10/25 06:04:30;;;;;;;;;;;15.30;79.30;;;;;;5093183;28;19951;-68
2023/10/25 06:06:56;;;;;;;;;;;15.20;79.00;;;;;;5074912;28;20023;-68
2023/10/25 06:09:23;;;;;;;;;;;15.30;79.10;;;;;;5091852;28;19918;-68
2023/10/25 06:11:49;;;;;;;;;;;15.20;78.50;;;;;;5092637;28;19963;-68
2023/10/25 06:14:15;;;;;;;;;;;15.20;78.40;;;;;;5074831;28;19912;-69
2023/10/25 06:16:41;;;;;;;;;;;15.20;78.40;;;;;;5093262;28;19927;-68
2023/10/25 06:19:07;;;;;;;;;;;15.30;79.10;;;;;;5091692;28;20324;-69
2023/10/25 06:21:33;;;;;;;;;;;15.40;79.00;;;;;;5091211;28;19960;-68
2023/10/25 06:23:58;;;;;;;;;;;15.40;78.70;;;;;;5091736;28;20355;-68
2023/10/25 06:26:24;;;;;;;;;;;15.50;78.50;;;;;;5091662;28;20026;-68
2023/10/25 06:28:51;;;;;;;;;;;15.60;78.40;;;;;;5092942;28;19912;-68
2023/10/25 06:31:16;;;;;;;;;;;15.70;78.40;;;;;;5091162;28;20283;-69
2023/10/25 06:33:42;;;;;;;;;;;15.70;78.30;;;;;;5092860;28;20007;-68
2023/10/25 06:36:09;;;;;;;;;;;15.80;78.20;;;;;;5091378;28;20364;-68
2023/10/25 06:38:36;;;;;;;;;;;15.80;77.90;;;;;;5091419;28;20402;-68
2023/10/25 06:41:02;;;;;;;;;;;15.90;77.90;;;;;;5091050;28;19926;-68
2023/10/25 06:43:48;;;;;;;;;;;16.00;77.90;;;;;;5091687;28;19912;-68
2023/10/25 06:46:14;;;;;;;;;;;16.00;77.80;;;;;;5074505;28;20297;-68
2023/10/25 06:48:40;;;;;;;;;;;16.00;77.20;;;;;;5093848;28;20336;-68
2023/10/25 06:51:07;;;;;;;;;;;16.10;77.80;;;;;;5094723;28;19924;-68
2023/10/25 06:53:33;;;;;;;;;;;16.20;77.60;;;;;;5095510;28;20414;-68
2023/10/25 06:56:00;;;;;;;;;;;16.20;77.40;;;;;;5095193;28;20018;-68
2023/10/25 06:58:26;;;;;;;;;;;16.20;78.10;;;;;;5095221;28;19916;-68
2023/10/25 07:00:55;;;;;;;;;;;16.20;77.70;;;;;;5095787;28;19923;-68
2023/10/25 07:03:26;;;;;;;;;;;16.30;77.90;;;;;;5096551;28;19918;-68
2023/10/25 07:05:55;;;;;;;;;;;16.40;77.60;;;;;;5088422;28;19924;-68
2023/10/25 07:08:21;;;;;;;;;;;16.50;77.50;;;;;;5081466;28;19967;-69
2023/10/25 07:10:47;;;;;;;;;;;16.60;76.90;;;;;;5075069;28;20009;-68
2023/10/25 07:13:13;;;;;;;;;;;16.60;77.60;;;;;;5075979;28;19917;-68
2023/10/25 07:15:39;;;;;;;;;;;16.70;77.80;;;;;;5074311;28;19948;-68
2023/10/25 07:18:05;;;;;;;;;;;16.70;77.90;;;;;;5074345;28;19970;-68
2023/10/25 07:20:31;;;;;;;;;;;16.80;77.70;;;;;;5075093;28;20046;-68
2023/10/25 07:22:57;;;;;;;;;;;16.90;77.80;;;;;;5074372;28;19967;-68
2023/10/25 07:25:23;;;;;;;;;;;16.90;77.10;;;;;;5092921;28;20117;-68
2023/10/25 07:27:49;;;;;;;;;;;17.00;77.80;;;;;;5095777;28;20333;-69
2023/10/25 07:30:15;;;;;;;;;;;17.10;77.70;;;;;;5077212;28;19912;-69
2023/10/25 07:32:41;;;;;;;;;;;17.10;77.50;;;;;;5077625;28;19922;-68
2023/10/25 07:35:07;;;;;;;;;;;17.20;77.40;;;;;;5094102;28;20019;-68
2023/10/25 07:37:33;;;;;;;;;;;17.20;76.80;;;;;;5094343;28;19924;-68
2023/10/25 07:39:59;;;;;;;;;;;17.30;77.60;;;;;;5094490;28;19923;-68
2023/10/25 07:42:25;;;;;;;;;;;17.40;77.40;;;;;;5095442;28;20010;-68
2023/10/25 07:44:51;;;;;;;;;;;17.60;77.00;;;;;;5095537;28;19956;-68
2023/10/25 07:47:20;;;;;;;;;;;17.70;77.00;;;;;;5094294;28;19970;-68
2023/10/25 07:49:46;;;;;;;;;;;17.80;76.80;;;;;;5094070;28;20315;-68
2023/10/25 07:52:14;;;;;;;;;;;17.80;76.50;;;;;;5093399;28;19973;-68
2023/10/25 07:54:40;;;;;;;;;;;17.90;76.20;;;;;;5077208;28;19930;-68
2023/10/25 07:57:06;;;;;;;;;;;18.10;76.20;;;;;;5094233;28;19998;-68
2023/10/25 07:59:32;;;;;;;;;;;18.10;76.00;;;;;;5076500;28;20397;-69
2023/10/25 08:01:58;;;;;;;;;;;18.20;75.80;;;;;;5094522;28;19948;-68
2023/10/25 08:04:23;;;;;;;;;;;18.30;75.70;;;;;;5095143;28;19912;-68
2023/10/25 08:06:49;;;;;;;;;;;18.30;74.90;;;;;;5093683;28;19924;-68
2023/10/25 08:09:15;;;;;;;;;;;18.50;75.50;;;;;;5095088;28;19919;-68
2023/10/25 08:11:41;;;;;;;;;;;19.10;73.70;;;;;;5094678;28;20496;-68
2023/10/25 08:14:08;;;;;;;;;;;19.10;73.40;;;;;;5093710;28;20002;-68
2023/10/25 08:16:38;;;;;;;;;;;19.10;73.20;;;;;;5093683;28;19920;-68
2023/10/25 08:19:05;;;;;;;;;;;19.50;72.60;;;;;;5094729;28;19912;-68
2023/10/25 08:21:31;;;;;;;;;;;19.70;71.00;;;;;;5093060;28;19920;-68
2023/10/25 08:23:57;;;;;;;;;;;19.90;69.00;;;;;;5094704;28;19938;-68
2023/10/25 08:26:26;;;;;;;;;;;20.60;69.20;;;;;;5094816;28;20022;-68
2023/10/25 08:28:52;;;;;;;;;;;22.70;62.30;;;;;;5093463;28;20300;-69
2023/10/25 08:31:19;;;;;;;;;;;24.20;56.90;;;;;;5094316;28;20006;-68
2023/10/25 08:33:45;;;;;;;;;;;25.50;52.70;;;;;;5093310;28;19912;-68
2023/10/25 08:36:11;;;;;;;;;;;24.70;50.90;;;;;;5094755;28;19920;-68
2023/10/25 08:38:37;;;;;;;;;;;24.50;52.80;;;;;;5093100;28;20377;-68
2023/10/25 08:41:04;;;;;;;;;;;24.10;54.70;;;;;;5093984;28;19924;-68
2023/10/25 08:43:33;;;;;;;;;;;23.30;55.70;;;;;;5094529;28;19912;-68
2023/10/25 08:45:59;;;;;;;;;;;22.70;56.70;;;;;;5092983;28;19943;-68
2023/10/25 08:48:25;;;;;;;;;;;22.30;57.80;;;;;;5092810;28;20006;-67
2023/10/25 08:50:51;;;;;;;;;;;22.00;58.10;;;;;;5092376;28;19955;-68
2023/10/25 08:53:36;;;;;;;;;;;22.20;58.30;;;;;;5092871;28;19915;-68
2023/10/25 08:56:03;;;;;;;;;;;22.60;57.50;;;;;;5092792;28;20385;-68
2023/10/25 08:58:28;;;;;;;;;;;22.50;57.80;;;;;;5094162;28;19912;-68
2023/10/25 09:00:55;;;;;;;;;;;22.30;57.80;;;;;;5092105;28;19920;-68
2023/10/25 09:03:40;;;;;;;;;;;22.00;55.80;;;;;;5093178;28;20342;-68
2023/10/25 09:06:08;;;;;;;;;;;21.90;57.80;;;;;;5075775;28;20284;-68
2023/10/25 09:08:34;;;;;;;;;;;21.80;57.90;;;;;;5093776;28;20319;-68
2023/10/25 09:11:19;;;;;;;;;;;21.80;58.00;;;;;;5091426;28;19920;-68
2023/10/25 09:13:55;;;;;;;;;;;21.90;58.20;;;;;;5093814;28;19912;-68
2023/10/25 09:16:26;;;;;;;;;;;22.10;57.50;;;;;;5075586;28;19920;-68
2023/10/25 09:18:52;;;;;;;;;;;22.30;57.00;;;;;;5092524;28;19977;-68
2023/10/25 09:21:29;;;;;;;;;;;22.40;57.00;;;;;;5092155;28;19920;-68
2023/10/25 09:23:56;;;;;;;;;;;22.40;56.20;;;;;;5092471;28;20348;-70
2023/10/25 09:26:23;;;;;;;;;;;22.20;56.20;;;;;;5092195;28;20327;-70
2023/10/25 09:29:12;;;;;;;;;;;22.10;55.90;;;;;;5092743;28;19944;-69
2023/10/25 09:31:39;;;;;;;;;;;22.00;56.70;;;;;;5093329;28;19924;-70
2023/10/25 09:34:08;;;;;;;;;;;22.00;57.10;;;;;;5093354;28;19912;-70
2023/10/25 09:36:34;;;;;;;;;;;22.00;55.60;;;;;;5092190;28;20312;-69
2023/10/25 09:39:00;;;;;;;;;;;22.00;55.80;;;;;;5092003;28;19985;-68
2023/10/25 09:41:27;;;;;;;;;;;22.10;56.40;;;;;;5086466;28;20368;-68
2023/10/25 09:43:58;;;;;;;;;;;22.10;55.30;;;;;;5113715;28;19911;-70
2023/10/25 09:46:29;;;;;;;;;;;22.20;54.60;;;;;;5112663;28;19920;-70
2023/10/25 09:49:18;;;;;;;;;;;22.30;54.40;;;;;;5112335;28;19912;-70
2023/10/25 09:51:44;;;;;;;;;;;22.40;54.30;;;;;;5113060;28;20815;-70
2023/10/25 09:54:11;;;;;;;;;;;22.60;53.60;;;;;;5113521;28;20026;-70
2023/10/25 09:56:38;;;;;;;;;;;22.60;52.90;;;;;;5113759;28;19955;-70
2023/10/25 09:59:22;;;;;;;;;;;22.70;53.60;;;;;;5113567;28;19922;-70
2023/10/25 10:01:48;;;;;;;;;;;22.90;52.20;;;;;;5094732;28;19973;-70
2023/10/25 10:04:19;;;;;;;;;;;22.80;51.50;;;;;;5112302;28;20418;-70
2023/10/25 10:07:22;;;;;;;;;;;22.70;52.40;;;;;;5095258;28;20015;-70
2023/10/25 10:10:12;;;;;;;;;;;22.70;52.80;;;;;;5112256;28;20394;-70
2023/10/25 10:12:38;;;;;;;;;;;22.70;51.10;;;;;;5112180;28;19915;-70
2023/10/25 10:15:04;;;;;;;;;;;22.70;50.90;;;;;;5112066;28;20391;-70
2023/10/25 10:17:34;;;;;;;;;;;22.80;51.90;;;;;;5112095;28;19966;-70
2023/10/25 10:20:04;;;;;;;;;;;23.00;52.00;;;;;;5112182;28;20520;-70
2023/10/25 10:22:30;;;;;;;;;;;23.00;51.10;;;;;;5113337;28;20296;-70
2023/10/25 10:25:04;;;;;;;;;;;23.00;49.80;;;;;;5116196;28;19916;-69
2023/10/25 10:27:54;;;;;;;;;;;23.00;50.70;;;;;;5114822;28;19920;-70
2023/10/25 10:30:39;;;;;;;;;;;23.20;50.40;;;;;;5116369;27;19959;-69
2023/10/25 10:33:08;;;;;;;;;;;23.50;49.70;;;;;;5115940;28;19923;-70
2023/10/25 10:35:34;;;;;;;;;;;23.70;48.80;;;;;;5115711;28;20479;-70
2023/10/25 10:38:00;;;;;;;;;;;23.80;49.10;;;;;;5115572;28;19922;-70
2023/10/25 10:40:26;;;;;;;;;;;23.70;48.00;;;;;;5116516;28;19919;-70
2023/10/25 10:42:52;;;;;;;;;;;23.50;47.40;;;;;;5115890;28;19916;-70
2023/10/25 10:45:19;;;;;;;;;;;23.50;46.70;;;;;;5116911;28;20261;-70
2023/10/25 10:48:23;;;;;;;;;;;23.60;45.90;;;;;;5115730;28;19978;-70
2023/10/25 10:50:52;;;;;;;;;;;23.60;46.50;;;;;;5115128;28;20291;-70
2023/10/25 10:53:17;;;;;;;;;;;23.70;46.20;;;;;;5115694;28;19994;-70
2023/10/25 10:55:45;;;;;;;;;;;23.90;45.20;;;;;;5116733;28;20027;-70
2023/10/25 10:58:11;;;;;;;;;;;24.00;43.40;;;;;;5116881;28;19951;-70
2023/10/25 11:00:44;;;;;;;;;;;24.10;43.30;;;;;;5116432;28;20312;-69
2023/10/25 11:03:10;;;;;;;;;;;24.10;43.40;;;;;;5116709;28;19912;-70
2023/10/25 11:05:37;;;;;;;;;;;24.00;43.50;;;;;;5115532;28;20012;-70
2023/10/25 11:08:07;;;;;;;;;;;23.80;45.30;;;;;;5115132;28;19912;-70
2023/10/25 11:10:34;;;;;;;;;;;23.50;46.50;;;;;;5114947;28;20020;-70
2023/10/25 11:13:00;;;;;;;;;;;23.30;48.00;;;;;;5116606;28;19922;-70
2023/10/25 11:15:29;;;;;;;;;;;23.20;48.20;;;;;;5098064;28;19919;-70
2023/10/25 11:17:55;;;;;;;;;;;23.10;46.30;;;;;;5116371;28;20429;-70
2023/10/25 11:20:21;;;;;;;;;;;22.90;46.30;;;;;;5115729;28;19995;-69
2023/10/25 11:22:46;;;;;;;;;;;22.80;46.20;;;;;;5115163;28;19919;-70
2023/10/25 11:25:21;;;;;;;;;;;22.70;46.60;;;;;;5098061;28;19955;-70
2023/10/25 11:27:47;;;;;;;;;;;22.70;47.10;;;;;;5116276;28;20443;-70
2023/10/25 11:30:13;;;;;;;;;;;22.70;47.10;;;;;;5114610;27;19916;-70
2023/10/25 11:32:42;;;;;;;;;;;22.70;47.40;;;;;;5115368;28;19915;-70
2023/10/25 11:35:25;;;;;;;;;;;22.80;47.10;;;;;;5114831;28;19924;-69
2023/10/25 11:37:52;;;;;;;;;;;22.80;47.00;;;;;;5115716;28;19919;-69
2023/10/25 11:40:19;;;;;;;;;;;22.70;47.30;;;;;;5115526;28;19918;-70
2023/10/25 11:42:45;;;;;;;;;;;22.70;47.90;;;;;;5114907;28;20404;-70
2023/10/25 11:45:11;;;;;;;;;;;22.80;48.00;;;;;;5115812;28;19912;-70
2023/10/25 11:47:38;;;;;;;;;;;22.60;48.30;;;;;;5116201;28;20010;-70
2023/10/25 11:50:04;;;;;;;;;;;22.70;48.40;;;;;;5114068;28;20300;-70
2023/10/25 11:52:31;;;;;;;;;;;22.70;48.80;;;;;;5115875;28;19922;-70
2023/10/25 11:54:58;;;;;;;;;;;22.80;48.50;;;;;;5114383;28;20398;-69
2023/10/25 11:57:43;;;;;;;;;;;22.70;47.70;;;;;;5116045;28;19916;-69
2023/10/25 12:00:09;;;;;;;;;;;22.70;48.20;;;;;;5113803;28;19920;-70
2023/10/25 12:02:35;;;;;;;;;;;22.70;48.80;;;;;;5116025;28;20279;-70
2023/10/25 12:05:03;;;;;;;;;;;22.70;48.40;;;;;;5114291;28;19916;-70
2023/10/25 12:07:31;;;;;;;;;;;22.70;48.80;;;;;;5115196;28;20344;-70
2023/10/25 12:09:57;;;;;;;;;;;22.50;48.80;;;;;;5115564;28;20334;-70
2023/10/25 12:12:23;;;;;;;;;;;22.60;48.70;;;;;;5113859;28;19939;-70
2023/10/25 12:14:49;;;;;;;;;;;22.60;48.70;;;;;;5115282;28;19912;-70
2023/10/25 12:17:15;;;;;;;;;;;22.60;48.40;;;;;;5096641;28;19963;-70
2023/10/25 12:19:41;;;;;;;;;;;22.60;49.80;;;;;;5115478;28;20325;-70
2023/10/25 12:22:10;;;;;;;;;;;22.50;50.00;;;;;;5113515;28;20459;-70
2023/10/25 12:24:36;;;;;;;;;;;22.50;48.80;;;;;;5114108;28;19911;-70
2023/10/25 12:27:04;;;;;;;;;;;22.40;49.10;;;;;;5096667;28;20053;-70
2023/10/25 12:29:30;;;;;;;;;;;22.30;49.40;;;;;;5113916;28;20347;-70
2023/10/25 12:31:56;;;;;;;;;;;22.20;49.60;;;;;;5114721;28;20297;-69
2023/10/25 12:34:23;;;;;;;;;;;22.10;48.00;;;;;;5113738;28;20295;-69
2023/10/25 12:36:49;;;;;;;;;;;21.90;47.70;;;;;;5113228;28;20011;-70
2023/10/25 12:39:18;;;;;;;;;;;21.80;47.60;;;;;;5113801;28;20308;-70
2023/10/25 12:41:44;;;;;;;;;;;21.70;47.90;;;;;;5114450;28;19941;-70
2023/10/25 12:44:12;;;;;;;;;;;21.70;48.30;;;;;;5113698;28;20276;-70
2023/10/25 12:46:56;;;;;;;;;;;21.70;49.10;;;;;;5114735;28;19972;-70
2023/10/25 12:49:22;;;;;;;;;;;21.70;48.80;;;;;;5096289;28;19912;-70
2023/10/25 12:51:48;;;;;;;;;;;21.50;46.90;;;;;;5114199;28;20386;-70
2023/10/25 12:54:14;;;;;;;;;;;21.50;47.30;;;;;;5113325;28;19916;-70
2023/10/25 12:56:40;;;;;;;;;;;21.40;47.10;;;;;;5113440;28;19920;-70
2023/10/25 12:59:06;;;;;;;;;;;21.40;47.00;;;;;;5113326;28;19912;-70
2023/10/25 13:01:32;;;;;;;;;;;21.30;47.10;;;;;;5112891;28;19947;-70
2023/10/25 13:03:59;;;;;;;;;;;21.30;47.50;;;;;;5096672;28;19919;-70
2023/10/25 13:06:26;;;;;;;;;;;21.20;44.80;;;;;;5092951;28;20019;-70
2023/10/25 13:08:53;;;;;;;;;;;21.10;46.30;;;;;;5112928;28;19922;-70
2023/10/25 13:11:18;;;;;;;;;;;21.00;45.00;;;;;;5113645;28;19919;-70
2023/10/25 13:13:44;;;;;;;;;;;21.00;45.20;;;;;;5113018;28;20003;-70
2023/10/25 13:16:10;;;;;;;;;;;21.00;47.20;;;;;;5114214;27;19973;-70
2023/10/25 13:18:36;;;;;;;;;;;21.00;47.10;;;;;;5114012;28;19924;-69
2023/10/25 13:21:02;;;;;;;;;;;21.10;47.60;;;;;;5113531;28;19919;-70
2023/10/25 13:23:29;;;;;;;;;;;21.20;47.70;;;;;;5113020;28;19911;-70
2023/10/25 13:25:55;;;;;;;;;;;21.20;47.10;;;;;;5113950;28;19919;-70
2023/10/25 13:28:21;;;;;;;;;;;21.30;45.60;;;;;;5112635;28;20006;-70
2023/10/25 13:30:48;;;;;;;;;;;21.40;46.20;;;;;;5112166;28;19997;-70
2023/10/25 13:33:14;;;;;;;;;;;21.40;45.90;;;;;;5114008;28;19926;-70
2023/10/25 13:35:40;;;;;;;;;;;21.40;45.80;;;;;;5112519;28;19920;-70
2023/10/25 13:38:06;;;;;;;;;;;21.30;46.20;;;;;;5112265;28;19919;-70
2023/10/25 13:40:32;;;;;;;;;;;21.30;46.30;;;;;;5111917;28;19960;-70
2023/10/25 13:42:57;;;;;;;;;;;21.60;45.90;;;;;;5112462;28;19916;-70
2023/10/25 13:45:23;;;;;;;;;;;22.90;44.20;;;;;;5113625;28;19918;-70
2023/10/25 13:47:49;;;;;;;;;;;23.30;41.70;;;;;;5113377;28;20003;-70
2023/10/25 13:50:15;;;;;;;;;;;23.40;42.40;;;;;;5111979;28;19911;-70
2023/10/25 13:52:41;;;;;;;;;;;23.60;40.50;;;;;;5112399;28;19926;-70
2023/10/25 13:55:07;;;;;;;;;;;23.20;41.50;;;;;;5113458;28;19923;-70
2023/10/25 13:57:34;;;;;;;;;;;22.80;42.80;;;;;;5111825;28;19912;-70
2023/10/25 14:00:00;;;;;;;;;;;22.30;44.20;;;;;;5112265;28;19923;-70
2023/10/25 14:02:26;;;;;;;;;;;21.90;44.30;;;;;;5113717;28;19916;-70
2023/10/25 14:04:51;;;;;;;;;;;21.70;45.60;;;;;;5113547;28;20015;-70
2023/10/25 14:07:17;;;;;;;;;;;21.50;45.20;;;;;;5113064;28;19968;-70
2023/10/25 14:09:43;;;;;;;;;;;21.40;45.60;;;;;;5113799;28;20284;-70
2023/10/25 14:12:09;;;;;;;;;;;21.40;45.80;;;;;;5111741;28;19928;-70
2023/10/25 14:14:35;;;;;;;;;;;21.30;46.40;;;;;;5112242;28;19916;-70
2023/10/25 14:17:01;;;;;;;;;;;21.30;46.80;;;;;;5113560;28;20349;-70
2023/10/25 14:19:27;;;;;;;;;;;21.20;47.60;;;;;;5111974;28;19919;-70
2023/10/25 14:21:54;;;;;;;;;;;21.10;48.00;;;;;;5112927;28;19999;-70